Terminal Aerodrome Forecast
Issued by NWS Quad Cities IA IL

Home | Current Version | Previous Version | Text Only | Print | Product List | Glossary On
Versions: 1 2 3 4 5 6 7 8 9 10 11 12 13 14 15 16 17 18 19
000
FTUS43 KDVN 241728
TAFDBQ
TAF
KDBQ 241728Z 2418/2518 19011KT P6SM VCSH BKN090
     FM242000 18011G16KT P6SM BKN070
     FM250000 16006KT P6SM BKN050
     FM250600 15006KT 4SM BR BKN035
     FM251400 16012G18KT P6SM BKN050=

USA.gov is the U.S. government's official web portal to all federal, state and local government web resources and services.